West Richfield, Ohio
Current Conditions -  °F | °C
As of 2:51 PM on Sunday 25 Jan 2015 (Local Time) from KCLE Reporting Station
Light Snow Light Snow  
Wind Chill:   Ceiling: 4000
Heat Index: 23°   Visibility: 6mi
Dew Point: 18°   Wind: 18mph
Humidity: 81%   Direction: 30°NNE
Pressure: 29.86"   Gusts: NA
Location:  41.2393°N, 81.6428°W
Report Text: KCLE 251951Z 03016KT 6SM -SN BKN040 OVC049 M05/M08 A2986 RMK AO2 SNB48 SLP120 P0000 T10501078
Loading
Personal Weather Stations






























Interactive Weather Map New forecast layout! Learn more

10-Day Weather Forecast

Advertisements
Track Severe Weather on mobile